createdAt,value
2022-09-04T00:02:50.293Z,3.70
2022-09-04T00:08:50.758Z,3.95
2022-09-04T00:11:53.712Z,4.32
2022-09-04T00:14:52.646Z,4.05
2022-09-04T00:18:07.301Z,4.28
2022-09-04T00:21:21.617Z,3.92
2022-09-04T00:24:15.646Z,3.75
2022-09-04T00:27:18.256Z,4.93
2022-09-04T00:30:08.375Z,3.90
2022-09-04T00:33:08.424Z,4.57
2022-09-04T00:35:58.858Z,4.55
2022-09-04T00:38:48.899Z,4.55
2022-09-04T00:41:41.117Z,4.80
2022-09-04T00:44:47.582Z,5.10
2022-09-04T00:47:42.177Z,4.07
2022-09-04T00:50:41.071Z,4.30
2022-09-04T00:54:02.068Z,4.90
2022-09-04T00:57:16.850Z,4.77
2022-09-04T01:00:16.599Z,4.25
2022-09-04T01:03:33.427Z,4.20
2022-09-04T01:06:42.101Z,4.78
2022-09-04T01:09:44.177Z,4.10
2022-09-04T01:12:50.194Z,4.85
2022-09-04T01:15:43.645Z,4.25
2022-09-04T01:18:48.276Z,4.85
2022-09-04T01:21:59.787Z,4.50
2022-09-04T01:27:55.554Z,4.10
2022-09-04T01:33:48.296Z,3.90
2022-09-04T01:36:58.501Z,4.47
2022-09-04T01:40:03.396Z,4.47
2022-09-04T01:43:23.317Z,4.70
2022-09-04T01:46:58.363Z,4.72
2022-09-04T01:49:56.440Z,4.75
2022-09-04T01:53:20.240Z,4.37
2022-09-04T01:56:15.582Z,4.78
2022-09-04T01:59:36.180Z,4.60
2022-09-04T02:02:41.519Z,4.43
2022-09-04T02:05:50.138Z,4.93
2022-09-04T02:08:55.267Z,5.20
2022-09-04T02:11:56.859Z,5.35
2022-09-04T02:14:46.261Z,5.15
2022-09-04T02:17:56.309Z,5.28
2022-09-04T02:21:10.990Z,5.40
2022-09-04T02:24:02.598Z,5.37
2022-09-04T02:27:16.183Z,6.22
2022-09-04T02:30:10.239Z,5.50
2022-09-04T02:32:59.583Z,5.47
2022-09-04T02:35:57.808Z,5.40
2022-09-04T02:39:06.350Z,5.32
2022-09-04T02:42:22.769Z,5.35
2022-09-04T02:45:43.116Z,5.37
2022-09-04T02:48:40.377Z,5.40
2022-09-04T02:51:45.617Z,5.90
2022-09-04T02:54:54.037Z,5.18
2022-09-04T02:57:55.106Z,5.43
2022-09-04T03:00:55.872Z,5.32
2022-09-04T03:03:50.384Z,5.10
2022-09-04T03:06:58.476Z,5.80
2022-09-04T03:09:45.675Z,5.18
2022-09-04T03:12:45.989Z,5.43
2022-09-04T03:15:45.816Z,5.90
2022-09-04T03:19:02.372Z,4.82
2022-09-04T03:22:04.487Z,5.43
2022-09-04T03:25:32.712Z,5.80
2022-09-04T03:28:34.751Z,5.22
2022-09-04T03:31:27.041Z,5.53
2022-09-04T03:34:38.789Z,5.47
2022-09-04T03:37:40.742Z,6.00
2022-09-04T03:40:29.780Z,5.55
2022-09-04T03:43:42.203Z,5.50
2022-09-04T03:46:42.927Z,4.82
2022-09-04T03:49:49.756Z,5.00
2022-09-04T03:53:00.952Z,4.82
2022-09-04T03:59:05.619Z,5.25
2022-09-04T04:02:02.265Z,5.32
2022-09-04T04:05:01.734Z,5.28
2022-09-04T04:08:20.914Z,5.35
2022-09-04T04:11:19.734Z,5.65
2022-09-04T04:14:22.859Z,4.93
2022-09-04T04:17:24.366Z,5.53
2022-09-04T04:20:38.237Z,5.32
2022-09-04T04:23:57.674Z,5.62
2022-09-04T04:26:43.846Z,5.53
2022-09-04T04:29:40.753Z,5.50
2022-09-04T04:32:48.522Z,5.93
2022-09-04T04:36:17.676Z,5.40
2022-09-04T04:39:14.733Z,6.70
2022-09-04T04:42:21.171Z,6.12
2022-09-04T04:45:38.173Z,7.18
2022-09-04T04:49:04.299Z,5.87
2022-09-04T04:52:21.558Z,5.82
2022-09-04T04:55:18.193Z,5.43
2022-09-04T04:58:11.478Z,5.65
2022-09-04T05:01:13.131Z,5.22
2022-09-04T05:07:12.812Z,5.10
2022-09-04T05:10:22.530Z,5.55
2022-09-04T05:13:20.809Z,4.93
2022-09-04T05:16:19.099Z,4.90
2022-09-04T05:19:29.208Z,5.07
2022-09-04T05:22:52.966Z,4.55
2022-09-04T05:25:41.086Z,5.32
2022-09-04T05:28:38.800Z,5.00
2022-09-04T05:31:32.637Z,4.90
2022-09-04T05:34:51.731Z,4.62
2022-09-04T05:37:58.011Z,4.97
2022-09-04T05:41:05.670Z,4.37
2022-09-04T05:44:20.299Z,4.07
2022-09-04T05:47:45.248Z,4.07
2022-09-04T05:51:05.802Z,3.92
2022-09-04T05:54:07.114Z,4.00
2022-09-04T06:00:05.753Z,4.10
2022-09-04T06:03:16.957Z,3.80
2022-09-04T06:06:15.902Z,3.70
2022-09-04T06:09:39.784Z,3.83
2022-09-04T06:12:41.979Z,3.53
2022-09-04T06:15:32.147Z,3.45
2022-09-04T06:18:28.772Z,3.65
2022-09-04T06:21:23.941Z,3.70
2022-09-04T06:24:26.124Z,3.53
2022-09-04T06:27:33.823Z,3.90
2022-09-04T06:30:22.130Z,3.62
2022-09-04T06:33:20.982Z,3.47
2022-09-04T06:36:30.713Z,3.22
2022-09-04T06:39:30.752Z,3.53
2022-09-04T06:42:48.642Z,3.25
2022-09-04T06:46:13.259Z,3.83
2022-09-04T06:49:15.777Z,3.10
2022-09-04T06:52:26.225Z,3.37
2022-09-04T06:55:29.166Z,3.15
2022-09-04T06:58:41.060Z,3.15
2022-09-04T07:01:52.793Z,3.45
2022-09-04T07:05:04.434Z,3.78
2022-09-04T07:08:02.937Z,3.28
2022-09-04T07:11:03.901Z,3.53
2022-09-04T07:16:49.265Z,3.12
2022-09-04T07:19:41.880Z,3.37
2022-09-04T07:22:35.361Z,3.42
2022-09-04T07:25:23.424Z,3.22
2022-09-04T07:28:36.528Z,3.40
2022-09-04T07:31:35.196Z,3.53
2022-09-04T07:34:43.397Z,3.85
2022-09-04T07:37:43.959Z,3.87
2022-09-04T07:40:38.288Z,3.60
2022-09-04T07:43:33.746Z,3.87
2022-09-04T07:46:40.285Z,3.53
2022-09-04T07:49:36.069Z,3.65
2022-09-04T07:52:43.776Z,4.00
2022-09-04T07:55:37.766Z,3.80
2022-09-04T07:58:45.694Z,3.47
2022-09-04T08:02:06.762Z,3.67
2022-09-04T08:04:59.435Z,3.40
2022-09-04T08:08:13.592Z,3.45
2022-09-04T08:11:09.758Z,3.30
2022-09-04T08:14:04.731Z,4.05
2022-09-04T08:17:25.257Z,3.40
2022-09-04T08:20:20.538Z,3.83
2022-09-04T08:23:38.084Z,3.10
2022-09-04T08:26:49.233Z,3.67
2022-09-04T08:29:45.590Z,3.83
2022-09-04T08:33:05.820Z,3.50
2022-09-04T08:35:57.401Z,3.42
2022-09-04T08:41:59.152Z,3.62
2022-09-04T08:45:06.802Z,3.25
2022-09-04T08:48:08.076Z,3.67
2022-09-04T08:51:15.488Z,3.60
2022-09-04T08:54:26.134Z,3.42
2022-09-04T08:57:25.421Z,4.45
2022-09-04T09:00:42.477Z,3.75
2022-09-04T09:03:35.251Z,4.00
2022-09-04T09:06:34.695Z,3.95
2022-09-04T09:09:58.605Z,3.85
2022-09-04T09:13:06.657Z,3.65
2022-09-04T09:16:17.975Z,3.35
2022-09-04T09:19:39.279Z,3.30
2022-09-04T09:23:10.119Z,3.55
2022-09-04T09:26:04.575Z,3.72
2022-09-04T09:29:39.274Z,3.90
2022-09-04T09:32:54.142Z,3.78
2022-09-04T09:35:43.238Z,4.03
2022-09-04T09:38:29.754Z,3.83
2022-09-04T09:41:46.496Z,4.10
2022-09-04T09:44:43.224Z,3.62
2022-09-04T09:48:10.961Z,3.72
2022-09-04T09:51:40.627Z,3.60
2022-09-04T09:54:41.843Z,3.25
2022-09-04T10:00:36.710Z,3.60
2022-09-04T10:03:41.977Z,3.60
2022-09-04T10:07:10.725Z,3.30
2022-09-04T10:10:24.868Z,3.85
2022-09-04T10:13:15.573Z,3.67
2022-09-04T10:16:40.005Z,3.55
2022-09-04T10:20:03.695Z,3.08
2022-09-04T10:23:05.515Z,3.20
2022-09-04T10:26:00.753Z,3.15
2022-09-04T10:29:11.281Z,3.42
2022-09-04T10:32:12.395Z,3.20
2022-09-04T10:35:18.370Z,3.20
2022-09-04T10:38:10.411Z,3.10
2022-09-04T10:41:14.945Z,3.03
2022-09-04T10:44:23.246Z,3.47
2022-09-04T10:47:28.924Z,3.50
2022-09-04T10:50:24.561Z,3.35
2022-09-04T10:53:22.467Z,3.60
2022-09-04T10:56:30.839Z,4.12
2022-09-04T10:59:59.322Z,4.20
2022-09-04T11:02:52.397Z,5.00
2022-09-04T11:06:00.229Z,4.50
2022-09-04T11:09:11.010Z,4.93
2022-09-04T11:12:09.413Z,4.60
2022-09-04T11:15:04.874Z,4.40
2022-09-04T11:17:57.762Z,4.05
2022-09-04T11:21:03.012Z,3.80
2022-09-04T11:24:27.457Z,4.05
2022-09-04T11:27:52.125Z,3.70
2022-09-04T11:30:57.147Z,4.18
2022-09-04T11:34:04.871Z,4.05
2022-09-04T11:37:25.376Z,3.70
2022-09-04T11:40:16.468Z,3.35
2022-09-04T11:46:35.718Z,3.50
2022-09-04T11:50:14.561Z,3.33
2022-09-04T11:53:28.739Z,3.90
2022-09-04T11:56:34.868Z,3.55
2022-09-04T11:59:39.306Z,3.62
2022-09-04T12:02:28.911Z,3.50
2022-09-04T12:05:39.172Z,3.40
2022-09-04T12:08:54.449Z,3.05
2022-09-04T12:11:41.135Z,2.95
2022-09-04T12:14:50.785Z,3.00
2022-09-04T12:17:47.573Z,3.42
2022-09-04T12:20:48.934Z,3.47
2022-09-04T12:23:56.773Z,3.22
2022-09-04T12:26:53.634Z,3.40
2022-09-04T12:30:16.059Z,2.67
2022-09-04T12:33:50.352Z,2.55
2022-09-04T12:36:45.243Z,2.87
2022-09-04T12:39:43.053Z,2.97
2022-09-04T12:42:37.986Z,2.60
2022-09-04T12:45:43.290Z,2.92
2022-09-04T12:48:56.290Z,3.03
2022-09-04T12:51:51.838Z,3.35
2022-09-04T12:54:55.674Z,2.80
2022-09-04T12:58:10.206Z,2.90
2022-09-04T13:01:32.143Z,2.90
2022-09-04T13:04:27.513Z,2.75
2022-09-04T13:07:41.668Z,3.03
2022-09-04T13:10:34.081Z,3.50
2022-09-04T13:13:25.218Z,3.50
2022-09-04T13:16:54.488Z,3.22
2022-09-04T13:20:12.499Z,3.37
2022-09-04T13:23:21.134Z,3.35
2022-09-04T13:26:29.822Z,2.97
2022-09-04T13:29:46.889Z,3.60
2022-09-04T13:33:17.661Z,4.00
2022-09-04T13:36:20.000Z,3.47
2022-09-04T13:39:20.046Z,3.08
2022-09-04T13:42:08.790Z,2.83
2022-09-04T13:45:05.614Z,3.00
2022-09-04T13:48:01.181Z,3.10
2022-09-04T13:50:56.237Z,3.40
2022-09-04T13:53:58.883Z,3.00
2022-09-04T13:56:51.266Z,3.08
2022-09-04T13:59:38.369Z,3.28
2022-09-04T14:02:26.942Z,3.08
2022-09-04T14:05:18.697Z,3.03
2022-09-04T14:08:08.778Z,3.10
2022-09-04T14:11:22.301Z,2.90
2022-09-04T14:14:23.872Z,3.25
2022-09-04T14:17:12.614Z,3.53
2022-09-04T14:20:08.779Z,3.33
2022-09-04T14:23:15.963Z,3.10
2022-09-04T14:26:17.104Z,2.90
2022-09-04T14:29:26.869Z,3.00
2022-09-04T14:32:35.107Z,3.50
2022-09-04T14:35:30.533Z,3.08
2022-09-04T14:38:51.772Z,3.62
2022-09-04T14:41:54.449Z,3.35
2022-09-04T14:45:16.362Z,3.40
2022-09-04T14:48:07.659Z,3.42
2022-09-04T14:50:56.502Z,3.60
2022-09-04T14:54:02.163Z,3.75
2022-09-04T14:56:55.624Z,3.87
2022-09-04T14:59:46.506Z,3.55
2022-09-04T15:02:36.022Z,3.87
2022-09-04T15:05:51.567Z,3.53
2022-09-04T15:08:41.036Z,3.65
2022-09-04T15:11:32.912Z,3.53
2022-09-04T15:14:28.471Z,3.45
2022-09-04T15:17:26.312Z,3.70
2022-09-04T15:20:20.351Z,3.60
2022-09-04T15:23:12.407Z,4.10
2022-09-04T15:26:02.101Z,3.90
2022-09-04T15:29:08.433Z,3.95
2022-09-04T15:32:03.403Z,3.60
2022-09-04T15:35:07.449Z,3.53
2022-09-04T15:38:21.560Z,3.37
2022-09-04T15:41:27.833Z,3.70
2022-09-04T15:44:26.622Z,3.40
2022-09-04T15:47:38.227Z,3.62
2022-09-04T15:50:32.627Z,3.50
2022-09-04T15:53:27.330Z,3.50
2022-09-04T15:56:16.409Z,3.37
2022-09-04T15:59:14.627Z,3.90
2022-09-04T16:02:13.037Z,3.58
2022-09-04T16:05:19.506Z,3.80
2022-09-04T16:08:25.893Z,3.12
2022-09-04T16:11:27.482Z,3.55
2022-09-04T16:14:26.456Z,3.30
2022-09-04T16:17:21.260Z,3.40
2022-09-04T16:20:24.316Z,3.78
2022-09-04T16:23:14.737Z,3.50
2022-09-04T16:26:11.019Z,3.47
2022-09-04T16:29:03.987Z,3.28
2022-09-04T16:31:55.588Z,3.65
2022-09-04T16:35:05.713Z,3.50
2022-09-04T16:37:56.883Z,3.53
2022-09-04T16:40:49.912Z,3.62
2022-09-04T16:43:36.365Z,3.53
2022-09-04T16:46:29.595Z,3.70
2022-09-04T16:49:21.989Z,4.00
2022-09-04T16:52:21.992Z,3.62
2022-09-04T16:55:25.062Z,3.42
2022-09-04T16:58:11.548Z,4.00
2022-09-04T17:01:13.987Z,3.90
2022-09-04T17:04:20.527Z,4.22
2022-09-04T17:07:24.701Z,3.87
2022-09-04T17:10:36.696Z,3.70
2022-09-04T17:13:52.277Z,3.83
2022-09-04T17:17:09.276Z,3.62
2022-09-04T17:20:19.442Z,3.92
2022-09-04T17:28:57.615Z,3.67
2022-09-04T17:29:19.381Z,3.42
2022-09-04T17:29:46.968Z,3.90
2022-09-04T17:35:36.813Z,3.58
2022-09-04T17:40:48.267Z,3.53
2022-09-04T17:40:54.446Z,3.90
2022-09-04T17:43:11.181Z,3.80
2022-09-04T17:46:11.588Z,4.03
2022-09-04T17:48:59.075Z,4.18
2022-09-04T17:51:57.691Z,4.65
2022-09-04T17:54:49.076Z,4.18
2022-09-04T17:57:57.601Z,4.68
2022-09-04T18:01:14.090Z,4.20
2022-09-04T18:04:38.896Z,4.05
2022-09-04T18:08:10.016Z,4.25
2022-09-04T18:10:46.105Z,4.32
2022-09-04T18:13:53.382Z,4.45
2022-09-04T18:17:12.203Z,4.50
2022-09-04T18:20:27.324Z,4.53
2022-09-04T18:23:28.034Z,5.87
2022-09-04T18:26:40.094Z,6.00
2022-09-04T18:31:48.264Z,5.35
2022-09-04T18:37:16.430Z,6.18
2022-09-04T18:37:24.932Z,5.18
2022-09-04T18:39:34.767Z,6.40
2022-09-04T18:50:23.593Z,6.55
2022-09-04T18:50:35.117Z,6.00
2022-09-04T18:50:35.454Z,5.82
2022-09-04T18:52:25.348Z,5.57
2022-09-04T18:55:23.080Z,6.07
2022-09-04T18:58:12.106Z,5.72
2022-09-04T19:01:28.518Z,5.95
2022-09-04T19:04:36.335Z,5.20
2022-09-04T19:07:34.860Z,4.78
2022-09-04T19:10:27.191Z,4.72
2022-09-04T19:13:25.349Z,5.10
2022-09-04T19:16:20.235Z,4.70
2022-09-04T19:19:28.684Z,4.82
2022-09-04T19:22:28.371Z,4.55
2022-09-04T19:25:15.261Z,4.30
2022-09-04T19:28:23.700Z,4.55
2022-09-04T19:31:17.634Z,4.40
2022-09-04T19:34:17.583Z,4.10
2022-09-04T19:38:49.554Z,4.43
2022-09-04T19:46:11.145Z,4.18
2022-09-04T19:46:14.248Z,3.90
2022-09-04T19:47:40.833Z,4.37
2022-09-04T19:53:24.292Z,4.25
2022-09-04T19:53:53.877Z,4.45
2022-09-04T19:57:31.471Z,3.80
2022-09-04T20:00:43.113Z,4.10
2022-09-04T20:03:34.258Z,3.85
2022-09-04T20:06:51.249Z,4.37
2022-09-04T20:09:48.397Z,4.05
2022-09-04T20:12:37.063Z,3.90
2022-09-04T20:15:31.628Z,4.22
2022-09-04T20:18:20.970Z,4.20
2022-09-04T20:21:18.027Z,4.15
2022-09-04T20:24:07.653Z,4.20
2022-09-04T20:27:15.713Z,3.92
2022-09-04T20:30:12.174Z,3.65
2022-09-04T20:33:16.656Z,3.95
2022-09-04T20:36:10.168Z,4.40
2022-09-04T20:39:48.452Z,4.12
2022-09-04T20:42:39.891Z,4.10
2022-09-04T20:49:35.317Z,4.85
2022-09-04T20:52:49.296Z,4.10
2022-09-04T20:52:50.485Z,4.18
2022-09-04T20:55:54.795Z,3.90
2022-09-04T21:03:12.660Z,3.70
2022-09-04T21:03:23.238Z,4.15
2022-09-04T21:06:04.267Z,3.90
2022-09-04T21:09:13.239Z,4.05
2022-09-04T21:12:17.161Z,5.12
2022-09-04T21:15:08.432Z,5.55
2022-09-04T21:18:07.010Z,7.07
2022-09-04T21:21:20.319Z,6.05
2022-09-04T21:24:20.826Z,5.85
2022-09-04T21:27:18.065Z,5.10
2022-09-04T21:30:08.512Z,4.82
2022-09-04T21:33:26.831Z,5.17
2022-09-04T21:36:26.879Z,4.57
2022-09-04T21:39:25.725Z,4.47
2022-09-04T21:42:24.670Z,4.80
2022-09-04T21:45:43.295Z,4.70
2022-09-04T21:48:44.632Z,4.70
2022-09-04T21:51:41.737Z,5.40
2022-09-04T21:56:59.998Z,4.85
2022-09-04T22:02:35.109Z,5.00
2022-09-04T22:02:39.910Z,4.50
2022-09-04T22:05:18.488Z,4.47
2022-09-04T22:13:26.390Z,4.53
2022-09-04T22:13:28.961Z,4.30
2022-09-04T22:14:54.703Z,4.70
2022-09-04T22:18:04.483Z,4.50
2022-09-04T22:21:16.298Z,5.00
2022-09-04T22:24:21.170Z,4.90
2022-09-04T22:27:22.328Z,4.40
2022-09-04T22:30:11.786Z,4.30
2022-09-04T22:33:10.096Z,4.25
2022-09-04T22:36:30.367Z,4.00
2022-09-04T22:39:31.564Z,4.28
2022-09-04T22:42:36.772Z,4.45
2022-09-04T22:45:43.178Z,4.20
2022-09-04T22:49:12.548Z,3.85
2022-09-04T22:52:14.316Z,4.43
2022-09-04T22:58:30.302Z,4.90
2022-09-04T23:01:36.782Z,5.10
2022-09-04T23:04:45.501Z,4.78
2022-09-04T23:13:42.345Z,4.45
2022-09-04T23:13:57.220Z,4.65
2022-09-04T23:14:18.904Z,4.35
2022-09-04T23:17:24.603Z,4.50
2022-09-04T23:26:31.013Z,4.80
2022-09-04T23:26:43.219Z,4.47
2022-09-04T23:27:07.475Z,4.07
2022-09-04T23:30:25.029Z,3.83
2022-09-04T23:33:39.136Z,4.30
2022-09-04T23:36:46.524Z,4.35
2022-09-04T23:40:26.695Z,3.83
2022-09-04T23:43:42.380Z,4.10
2022-09-04T23:46:44.992Z,4.62
2022-09-04T23:49:42.444Z,4.40
2022-09-04T23:53:20.270Z,3.83
2022-09-04T23:56:35.793Z,3.87
2022-09-04T23:59:50.572Z,4.43
